createdAt,value
2023-06-08T00:00:12.946Z,21.42
2023-06-08T00:02:17.038Z,21.42
2023-06-08T00:04:19.915Z,21.39
2023-06-08T00:06:24.264Z,21.39
2023-06-08T00:08:27.208Z,21.37
2023-06-08T00:10:30.029Z,21.31
2023-06-08T00:12:33.135Z,21.30
2023-06-08T00:14:36.973Z,21.27
2023-06-08T00:16:43.263Z,21.26
2023-06-08T00:18:46.293Z,21.27
2023-06-08T00:20:49.108Z,21.26
2023-06-08T00:22:53.046Z,21.23
2023-06-08T00:24:55.884Z,21.21
2023-06-08T00:26:58.905Z,21.22
2023-06-08T00:29:01.867Z,21.18
2023-06-08T00:31:04.683Z,21.15
2023-06-08T00:33:08.948Z,21.14
2023-06-08T00:35:14.325Z,21.17
2023-06-08T00:37:17.213Z,21.12
2023-06-08T00:39:20.020Z,21.04
2023-06-08T00:41:22.956Z,21.03
2023-06-08T00:43:25.895Z,20.99
2023-06-08T00:45:28.730Z,20.91
2023-06-08T00:47:31.694Z,20.92
2023-06-08T00:49:37.474Z,20.93
2023-06-08T00:51:42.916Z,20.87
2023-06-08T00:53:47.458Z,20.89
2023-06-08T00:55:53.119Z,20.84
2023-06-08T00:57:56.207Z,20.82
2023-06-08T01:00:06.097Z,20.85
2023-06-08T01:02:09.120Z,20.86
2023-06-08T01:04:15.570Z,20.79
2023-06-08T01:06:22.090Z,20.83
2023-06-08T01:08:34.414Z,20.78
2023-06-08T01:10:44.336Z,20.73
2023-06-08T01:12:53.533Z,20.71
2023-06-08T01:15:07.459Z,20.73
2023-06-08T01:17:13.740Z,20.64
2023-06-08T01:19:24.516Z,20.65
2023-06-08T01:21:49.296Z,20.66
2023-06-08T01:24:06.336Z,20.66
2023-06-08T01:26:11.420Z,20.61
2023-06-08T01:28:14.483Z,20.56
2023-06-08T01:30:17.420Z,20.58
2023-06-08T01:32:20.937Z,20.56
2023-06-08T01:34:24.011Z,20.58
2023-06-08T01:36:30.844Z,20.61
2023-06-08T01:38:41.262Z,20.52
2023-06-08T01:40:51.048Z,20.57
2023-06-08T01:42:55.828Z,20.53
2023-06-08T01:45:01.966Z,20.52
2023-06-08T01:47:07.206Z,20.46
2023-06-08T01:49:11.564Z,20.37
2023-06-08T01:51:16.005Z,20.32
2023-06-08T01:53:18.770Z,20.28
2023-06-08T01:55:23.720Z,20.23
2023-06-08T01:57:28.041Z,20.22
2023-06-08T01:59:30.952Z,20.18
2023-06-08T02:01:52.359Z,20.22
2023-06-08T02:03:55.271Z,20.17
2023-06-08T02:05:58.174Z,20.13
2023-06-08T02:08:01.082Z,20.11
2023-06-08T02:10:04.704Z,20.08
2023-06-08T02:12:10.397Z,20.12
2023-06-08T02:14:15.634Z,20.08
2023-06-08T02:16:20.171Z,20.12
2023-06-08T02:18:22.901Z,20.04
2023-06-08T02:20:27.574Z,19.95
2023-06-08T02:22:30.640Z,20.00
2023-06-08T02:24:33.545Z,20.01
2023-06-08T02:26:36.406Z,19.86
2023-06-08T02:28:40.925Z,19.77
2023-06-08T02:30:48.407Z,19.78
2023-06-08T02:32:54.420Z,19.82
2023-06-08T02:34:57.768Z,19.84
2023-06-08T02:37:03.210Z,19.84
2023-06-08T02:39:06.050Z,19.79
2023-06-08T02:41:09.020Z,19.78
2023-06-08T02:43:16.656Z,19.72
2023-06-08T02:45:21.936Z,19.76
2023-06-08T02:47:26.969Z,19.67
2023-06-08T02:49:29.842Z,19.60
2023-06-08T02:51:32.725Z,19.59
2023-06-08T02:53:36.922Z,19.56
2023-06-08T02:55:39.811Z,19.57
2023-06-08T02:57:50.145Z,19.51
2023-06-08T02:59:54.321Z,19.53
2023-06-08T03:01:59.376Z,19.51
2023-06-08T03:04:08.317Z,19.49
2023-06-08T03:06:19.075Z,19.51
2023-06-08T03:08:23.947Z,19.50
2023-06-08T03:10:27.585Z,19.49
2023-06-08T03:12:31.225Z,19.49
2023-06-08T03:14:37.032Z,19.47
2023-06-08T03:16:40.039Z,19.50
2023-06-08T03:18:43.190Z,19.53
2023-06-08T03:20:52.922Z,19.54
2023-06-08T03:22:56.005Z,19.51
2023-06-08T03:25:01.573Z,19.49
2023-06-08T03:27:07.154Z,19.45
2023-06-08T03:29:10.188Z,19.45
2023-06-08T03:31:15.202Z,19.44
2023-06-08T03:33:23.363Z,19.41
2023-06-08T03:35:31.408Z,19.42
2023-06-08T03:38:01.474Z,19.38
2023-06-08T03:40:07.298Z,19.37
2023-06-08T03:42:10.932Z,19.30
2023-06-08T03:44:17.306Z,19.33
2023-06-08T03:46:21.054Z,19.34
2023-06-08T03:48:24.799Z,19.43
2023-06-08T03:50:27.781Z,19.42
2023-06-08T03:52:31.615Z,19.48
2023-06-08T03:54:35.783Z,19.40
2023-06-08T03:56:38.816Z,19.37
2023-06-08T03:58:42.857Z,19.36
2023-06-08T04:00:46.646Z,19.36
2023-06-08T04:02:51.957Z,19.39
2023-06-08T04:05:00.238Z,19.39
2023-06-08T04:07:04.221Z,19.41
2023-06-08T04:09:07.863Z,19.42
2023-06-08T04:11:12.510Z,19.41
2023-06-08T04:13:15.440Z,19.39
2023-06-08T04:15:19.373Z,19.40
2023-06-08T04:17:22.419Z,19.38
2023-06-08T04:19:28.338Z,19.40
2023-06-08T04:21:31.826Z,19.43
2023-06-08T04:23:40.812Z,19.48
2023-06-08T04:25:45.197Z,19.43
2023-06-08T04:27:49.442Z,19.49
2023-06-08T04:29:53.677Z,19.53
2023-06-08T04:31:56.700Z,19.54
2023-06-08T04:33:59.727Z,19.56
2023-06-08T04:36:02.943Z,19.57
2023-06-08T04:38:11.506Z,19.62
2023-06-08T04:40:14.354Z,19.65
2023-06-08T04:42:18.715Z,19.68
2023-06-08T04:44:24.070Z,19.71
2023-06-08T04:46:29.545Z,19.68
2023-06-08T04:48:34.446Z,19.69
2023-06-08T04:50:38.918Z,19.79
2023-06-08T04:52:42.513Z,19.74
2023-06-08T04:54:47.955Z,19.77
2023-06-08T04:56:50.971Z,19.75
2023-06-08T04:58:53.861Z,19.90
2023-06-08T05:00:58.714Z,19.90
2023-06-08T05:03:01.943Z,19.95
2023-06-08T05:05:06.377Z,19.91
2023-06-08T05:07:09.272Z,19.95
2023-06-08T05:09:13.475Z,19.92
2023-06-08T05:11:16.373Z,20.05
2023-06-08T05:13:19.330Z,19.99
2023-06-08T05:15:22.163Z,20.03
2023-06-08T05:17:26.491Z,20.09
2023-06-08T05:19:29.413Z,20.16
2023-06-08T05:21:32.685Z,20.25
2023-06-08T05:23:35.571Z,20.28
2023-06-08T05:25:38.666Z,20.35
2023-06-08T05:27:41.574Z,20.37
2023-06-08T05:29:44.441Z,20.41
2023-06-08T05:31:47.363Z,20.41
2023-06-08T05:33:51.525Z,20.54
2023-06-08T05:35:54.370Z,20.54
2023-06-08T05:37:57.307Z,20.46
2023-06-08T05:40:00.823Z,20.46
2023-06-08T05:42:03.679Z,20.51
2023-06-08T05:44:06.605Z,20.60
2023-06-08T05:46:09.464Z,20.67
2023-06-08T05:48:12.439Z,20.82
2023-06-08T05:50:16.671Z,20.83
2023-06-08T05:52:19.545Z,20.87
2023-06-08T05:54:22.371Z,20.92
2023-06-08T05:56:27.019Z,21.04
2023-06-08T05:58:41.022Z,21.08
2023-06-08T06:00:53.811Z,21.17
2023-06-08T06:02:56.748Z,21.31
2023-06-08T06:05:00.287Z,21.35
2023-06-08T06:07:06.116Z,21.37
2023-06-08T06:09:09.003Z,21.39
2023-06-08T06:11:11.847Z,21.34
2023-06-08T06:13:14.720Z,21.37
2023-06-08T06:15:17.744Z,21.41
2023-06-08T06:17:21.727Z,21.57
2023-06-08T06:19:24.604Z,21.59
2023-06-08T06:21:27.483Z,21.59
2023-06-08T06:23:31.801Z,21.66
2023-06-08T06:25:37.583Z,21.77
2023-06-08T06:27:48.084Z,21.85
2023-06-08T06:29:51.607Z,21.93
2023-06-08T06:31:54.678Z,21.97
2023-06-08T06:33:57.584Z,22.06
2023-06-08T06:36:00.459Z,22.20
2023-06-08T06:38:03.296Z,22.38
2023-06-08T06:40:09.880Z,22.53
2023-06-08T06:42:13.144Z,22.61
2023-06-08T06:44:34.256Z,22.75
2023-06-08T06:46:37.136Z,22.83
2023-06-08T06:48:40.099Z,22.82
2023-06-08T06:50:42.879Z,22.88
2023-06-08T06:52:45.855Z,22.94
2023-06-08T06:54:48.717Z,23.01
2023-06-08T06:56:53.072Z,23.05
2023-06-08T06:58:57.496Z,23.00
2023-06-08T07:01:02.371Z,23.04
2023-06-08T07:03:06.025Z,23.15
2023-06-08T07:05:11.351Z,23.21
2023-06-08T07:07:14.197Z,23.32
2023-06-08T07:09:18.488Z,23.33
2023-06-08T07:11:21.368Z,23.40
2023-06-08T07:13:25.528Z,23.50
2023-06-08T07:15:28.569Z,23.38
2023-06-08T07:17:31.827Z,23.41
2023-06-08T07:19:35.332Z,23.44
2023-06-08T07:21:43.177Z,23.50
2023-06-08T07:24:20.894Z,23.55
2023-06-08T07:26:28.839Z,23.46
2023-06-08T07:28:35.102Z,23.51
2023-06-08T07:30:39.072Z,23.60
2023-06-08T07:32:44.449Z,23.60
2023-06-08T07:34:47.379Z,23.55
2023-06-08T07:36:50.190Z,23.57
2023-06-08T07:38:53.124Z,23.63
2023-06-08T07:40:55.964Z,23.71
2023-06-08T07:42:58.797Z,23.81
2023-06-08T07:45:03.117Z,23.82
2023-06-08T07:47:06.257Z,23.85
2023-06-08T07:49:09.243Z,23.86
2023-06-08T07:51:12.139Z,23.96
2023-06-08T07:53:16.032Z,23.96
2023-06-08T07:55:18.863Z,24.07
2023-06-08T07:57:21.727Z,24.15
2023-06-08T07:59:26.802Z,24.29
2023-06-08T08:01:31.078Z,24.32
2023-06-08T08:03:37.285Z,24.28
2023-06-08T08:05:40.529Z,24.36
2023-06-08T08:07:43.377Z,24.32
2023-06-08T08:09:46.506Z,24.11
2023-06-08T08:11:49.489Z,23.92
2023-06-08T08:13:52.316Z,23.78
2023-06-08T08:15:55.147Z,23.80
2023-06-08T08:17:59.369Z,23.83
2023-06-08T08:20:02.109Z,23.96
2023-06-08T08:22:07.054Z,23.92
2023-06-08T08:24:09.997Z,24.25
2023-06-08T08:26:12.972Z,24.29
2023-06-08T08:28:16.037Z,24.25
2023-06-08T08:30:19.144Z,24.29
2023-06-08T08:32:21.978Z,24.46
2023-06-08T08:34:26.204Z,24.62
2023-06-08T08:36:29.086Z,24.72
2023-06-08T08:38:31.932Z,24.83
2023-06-08T08:40:34.811Z,24.99
2023-06-08T08:42:43.888Z,25.05
2023-06-08T08:44:48.927Z,25.13
2023-06-08T08:46:52.087Z,25.06
2023-06-08T08:48:59.244Z,24.89
2023-06-08T08:51:06.030Z,25.04
2023-06-08T08:53:10.461Z,25.08
2023-06-08T08:55:25.925Z,25.12
2023-06-08T08:57:37.601Z,25.30
2023-06-08T08:59:41.946Z,25.28
2023-06-08T09:01:46.632Z,25.36
2023-06-08T09:03:51.656Z,25.60
2023-06-08T09:05:54.645Z,25.63
2023-06-08T09:07:59.917Z,25.57
2023-06-08T09:10:17.100Z,25.68
2023-06-08T09:12:19.924Z,25.93
2023-06-08T09:14:22.715Z,26.02
2023-06-08T09:16:25.861Z,25.96
2023-06-08T09:18:28.737Z,25.86
2023-06-08T09:20:33.446Z,25.91
2023-06-08T09:22:37.651Z,26.13
2023-06-08T09:24:50.604Z,26.05
2023-06-08T09:26:56.988Z,26.10
2023-06-08T09:29:01.244Z,26.32
2023-06-08T09:31:10.260Z,26.45
2023-06-08T09:33:24.453Z,26.37
2023-06-08T09:35:27.370Z,26.39
2023-06-08T09:37:31.698Z,26.37
2023-06-08T09:39:40.465Z,26.62
2023-06-08T09:41:57.922Z,26.58
2023-06-08T09:44:01.734Z,26.59
2023-06-08T09:46:04.598Z,26.56
2023-06-08T09:48:12.490Z,26.72
2023-06-08T09:50:15.677Z,26.88
2023-06-08T09:52:21.055Z,26.81
2023-06-08T09:54:24.367Z,26.82
2023-06-08T09:56:28.698Z,26.94
2023-06-08T09:58:36.564Z,26.89
2023-06-08T10:00:41.376Z,26.89
2023-06-08T10:02:55.338Z,27.03
2023-06-08T10:05:04.517Z,26.97
2023-06-08T10:07:20.442Z,27.13
2023-06-08T10:09:31.410Z,27.08
2023-06-08T10:11:36.392Z,27.31
2023-06-08T10:13:41.277Z,27.42
2023-06-08T10:15:44.924Z,27.55
2023-06-08T10:17:49.061Z,27.37
2023-06-08T10:19:52.876Z,27.42
2023-06-08T10:21:57.879Z,27.74
2023-06-08T10:24:02.256Z,27.60
2023-06-08T10:26:06.448Z,27.57
2023-06-08T10:28:10.957Z,27.52
2023-06-08T10:30:28.589Z,27.73
2023-06-08T10:32:33.176Z,27.72
2023-06-08T10:34:40.401Z,27.41
2023-06-08T10:36:44.451Z,27.51
2023-06-08T10:38:56.259Z,27.50
2023-06-08T10:41:00.015Z,27.39
2023-06-08T10:43:20.148Z,27.63
2023-06-08T10:45:33.704Z,27.65
2023-06-08T10:47:39.160Z,27.59
2023-06-08T10:49:47.054Z,27.73
2023-06-08T10:51:56.060Z,27.89
2023-06-08T10:54:00.307Z,28.09
2023-06-08T10:56:03.159Z,28.17
2023-06-08T10:58:17.101Z,27.92
2023-06-08T11:00:47.023Z,27.98
2023-06-08T11:02:50.342Z,28.13
2023-06-08T11:04:59.686Z,27.94
2023-06-08T11:07:04.948Z,27.92
2023-06-08T11:09:07.882Z,27.93
2023-06-08T11:11:13.032Z,28.18
2023-06-08T11:13:17.370Z,28.39
2023-06-08T11:15:20.527Z,28.53
2023-06-08T11:17:24.798Z,28.40
2023-06-08T11:19:30.834Z,28.39
2023-06-08T11:21:36.699Z,28.61
2023-06-08T11:23:39.636Z,28.70
2023-06-08T11:25:45.041Z,28.75
2023-06-08T11:27:48.340Z,28.74
2023-06-08T11:29:51.146Z,28.60
2023-06-08T11:31:54.972Z,28.58
2023-06-08T11:33:59.345Z,28.65
2023-06-08T11:36:02.536Z,28.73
2023-06-08T11:38:06.391Z,28.93
2023-06-08T11:40:12.164Z,28.98
2023-06-08T11:42:17.402Z,28.98
2023-06-08T11:44:20.296Z,28.84
2023-06-08T11:46:23.250Z,28.90
2023-06-08T11:48:26.370Z,28.93
2023-06-08T11:50:31.124Z,28.77
2023-06-08T11:52:37.682Z,28.55
2023-06-08T11:54:41.222Z,28.38
2023-06-08T11:56:46.621Z,28.28
2023-06-08T11:58:49.528Z,28.08
2023-06-08T12:00:52.435Z,27.98
2023-06-08T12:02:56.358Z,28.21
2023-06-08T12:05:00.998Z,28.23
2023-06-08T12:07:13.736Z,27.98
2023-06-08T12:09:17.209Z,27.90
2023-06-08T12:11:22.610Z,27.77
2023-06-08T12:13:26.971Z,27.54
2023-06-08T12:15:29.906Z,27.12
2023-06-08T12:17:32.819Z,27.04
2023-06-08T12:19:36.283Z,26.81
2023-06-08T12:21:44.578Z,26.65
2023-06-08T12:23:48.826Z,26.34
2023-06-08T12:25:53.045Z,26.25
2023-06-08T12:27:56.285Z,26.25
2023-06-08T12:29:59.588Z,25.98
2023-06-08T12:32:02.463Z,26.03
2023-06-08T12:34:05.762Z,25.99
2023-06-08T12:36:08.762Z,25.95
2023-06-08T12:38:11.557Z,26.08
2023-06-08T12:40:16.469Z,26.10
2023-06-08T12:42:19.337Z,26.16
2023-06-08T12:44:22.473Z,26.16
2023-06-08T12:46:26.839Z,26.09
2023-06-08T12:48:31.704Z,26.14
2023-06-08T12:50:34.857Z,26.11
2023-06-08T12:52:39.419Z,26.10
2023-06-08T12:54:44.453Z,26.13
2023-06-08T12:56:48.669Z,26.25
2023-06-08T12:58:52.204Z,26.28
2023-06-08T13:00:56.374Z,26.21
2023-06-08T13:02:59.437Z,26.26
2023-06-08T13:05:02.638Z,26.35
2023-06-08T13:07:06.071Z,26.39
2023-06-08T13:09:09.007Z,26.37
2023-06-08T13:11:12.021Z,26.51
2023-06-08T13:13:16.259Z,26.48
2023-06-08T13:15:20.013Z,26.52
2023-06-08T13:17:23.109Z,26.63
2023-06-08T13:19:26.119Z,26.60
2023-06-08T13:21:32.878Z,26.68
2023-06-08T13:23:35.735Z,26.69
2023-06-08T13:25:38.667Z,26.65
2023-06-08T13:27:41.593Z,26.78
2023-06-08T13:29:49.344Z,26.74
2023-06-08T13:31:52.682Z,26.75
2023-06-08T13:33:55.480Z,26.68
2023-06-08T13:35:59.574Z,26.69
2023-06-08T13:38:02.467Z,26.72
2023-06-08T13:40:06.512Z,26.85
2023-06-08T13:42:10.027Z,26.91
2023-06-08T13:44:13.704Z,26.98
2023-06-08T13:46:18.011Z,27.00
2023-06-08T13:48:22.228Z,26.96
2023-06-08T13:50:28.009Z,27.09
2023-06-08T13:52:30.953Z,27.09
2023-06-08T13:54:34.229Z,27.01
2023-06-08T13:56:37.079Z,27.01
2023-06-08T13:58:40.131Z,27.09
2023-06-08T14:00:43.111Z,26.89
2023-06-08T14:02:48.567Z,26.90
2023-06-08T14:04:51.524Z,27.07
2023-06-08T14:06:54.364Z,26.95
2023-06-08T14:08:57.226Z,26.94
2023-06-08T14:11:00.127Z,27.00
2023-06-08T14:13:02.995Z,27.09
2023-06-08T14:15:07.701Z,27.16
2023-06-08T14:17:10.574Z,27.22
2023-06-08T14:19:15.591Z,27.26
2023-06-08T14:21:18.583Z,27.37
2023-06-08T14:23:21.794Z,27.40
2023-06-08T14:25:24.693Z,27.49
2023-06-08T14:27:27.534Z,27.33
2023-06-08T14:29:30.444Z,27.43
2023-06-08T14:31:33.318Z,27.50
2023-06-08T14:33:36.198Z,27.56
2023-06-08T14:35:41.809Z,27.70
2023-06-08T14:37:44.809Z,27.78
2023-06-08T14:39:47.703Z,27.87
2023-06-08T14:41:50.533Z,27.84
2023-06-08T14:43:53.331Z,27.85
2023-06-08T14:45:56.166Z,27.81
2023-06-08T14:47:59.323Z,27.93
2023-06-08T14:50:02.289Z,27.98
2023-06-08T14:52:07.250Z,28.04
2023-06-08T14:54:10.148Z,28.12
2023-06-08T14:56:15.868Z,28.02
2023-06-08T14:58:18.956Z,27.81
2023-06-08T15:00:22.860Z,27.89
2023-06-08T15:02:25.750Z,27.89
2023-06-08T15:04:28.627Z,27.95
2023-06-08T15:06:32.913Z,27.90
2023-06-08T15:08:38.223Z,28.02
2023-06-08T15:10:41.106Z,28.12
2023-06-08T15:12:44.035Z,28.18
2023-06-08T15:14:51.072Z,28.10
2023-06-08T15:16:54.476Z,28.05
2023-06-08T15:18:57.460Z,28.11
2023-06-08T15:21:00.401Z,28.11
2023-06-08T15:23:03.249Z,27.90
2023-06-08T15:25:08.454Z,27.73
2023-06-08T15:27:11.303Z,27.47
2023-06-08T15:29:14.098Z,27.38
2023-06-08T15:31:17.089Z,27.03
2023-06-08T15:33:20.084Z,26.88
2023-06-08T15:35:22.933Z,26.77
2023-06-08T15:37:29.345Z,26.69
2023-06-08T15:39:32.253Z,26.28
2023-06-08T15:41:36.479Z,26.22
2023-06-08T15:43:39.168Z,26.31
2023-06-08T15:45:42.231Z,26.19
2023-06-08T15:47:46.890Z,26.12
2023-06-08T15:49:50.873Z,26.34
2023-06-08T15:51:53.726Z,26.66
2023-06-08T15:53:56.875Z,26.91
2023-06-08T15:55:59.700Z,26.95
2023-06-08T15:58:05.031Z,27.03
2023-06-08T16:00:09.805Z,26.90
2023-06-08T16:02:15.754Z,27.01
2023-06-08T16:04:18.669Z,27.21
2023-06-08T16:06:25.283Z,27.26
2023-06-08T16:08:28.308Z,27.10
2023-06-08T16:10:31.192Z,27.14
2023-06-08T16:12:34.031Z,27.07
2023-06-08T16:14:38.199Z,27.07
2023-06-08T16:16:40.988Z,27.04
2023-06-08T16:18:43.886Z,27.09
2023-06-08T16:20:48.333Z,27.00
2023-06-08T16:22:52.163Z,27.08
2023-06-08T16:24:55.027Z,27.05
2023-06-08T16:27:02.150Z,26.93
2023-06-08T16:29:04.940Z,27.00
2023-06-08T16:31:09.160Z,26.91
2023-06-08T16:33:12.289Z,26.78
2023-06-08T16:35:15.413Z,26.76
2023-06-08T16:37:18.335Z,26.79
2023-06-08T16:39:21.207Z,26.83
2023-06-08T16:41:26.226Z,26.83
2023-06-08T16:43:29.050Z,26.48
2023-06-08T16:45:32.608Z,26.56
2023-06-08T16:47:37.683Z,26.38
2023-06-08T16:49:41.130Z,26.34
2023-06-08T16:51:44.049Z,26.52
2023-06-08T16:53:47.484Z,26.57
2023-06-08T16:55:51.952Z,26.38
2023-06-08T16:57:54.874Z,26.32
2023-06-08T16:59:57.765Z,26.20
2023-06-08T17:02:01.030Z,26.27
2023-06-08T17:04:05.452Z,26.34
2023-06-08T17:06:08.567Z,26.50
2023-06-08T17:08:11.415Z,26.42
2023-06-08T17:10:14.343Z,26.43
2023-06-08T17:12:17.558Z,26.28
2023-06-08T17:14:20.381Z,26.25
2023-06-08T17:16:23.324Z,26.21
2023-06-08T17:18:26.264Z,26.13
2023-06-08T17:20:30.493Z,26.05
2023-06-08T17:22:33.253Z,26.08
2023-06-08T17:24:36.347Z,25.91
2023-06-08T17:26:40.608Z,25.89
2023-06-08T17:28:43.334Z,25.89
2023-06-08T17:30:46.664Z,25.95
2023-06-08T17:32:49.577Z,25.96
2023-06-08T17:34:52.875Z,25.97
2023-06-08T17:36:57.546Z,25.91
2023-06-08T17:39:00.520Z,25.79
2023-06-08T17:41:03.434Z,25.78
2023-06-08T17:43:06.233Z,25.81
2023-06-08T17:45:10.309Z,25.89
2023-06-08T17:47:13.182Z,25.87
2023-06-08T17:49:15.993Z,25.82
2023-06-08T17:51:18.984Z,25.65
2023-06-08T17:53:23.326Z,25.50
2023-06-08T17:55:26.251Z,25.31
2023-06-08T17:57:29.078Z,25.13
2023-06-08T17:59:32.066Z,24.88
2023-06-08T18:01:35.450Z,24.64
2023-06-08T18:03:43.145Z,24.67
2023-06-08T18:05:46.164Z,24.57
2023-06-08T18:07:49.057Z,24.42
2023-06-08T18:09:53.361Z,24.38
2023-06-08T18:11:56.409Z,24.26
2023-06-08T18:13:59.277Z,24.29
2023-06-08T18:16:02.112Z,24.28
2023-06-08T18:18:05.467Z,24.34
2023-06-08T18:20:09.385Z,24.40
2023-06-08T18:22:12.630Z,24.45
2023-06-08T18:24:16.514Z,24.40
2023-06-08T18:26:21.303Z,24.41
2023-06-08T18:28:24.237Z,24.50
2023-06-08T18:30:27.748Z,24.54
2023-06-08T18:32:30.816Z,24.49
2023-06-08T18:34:33.796Z,24.39
2023-06-08T18:36:36.664Z,24.36
2023-06-08T18:38:39.455Z,24.30
2023-06-08T18:40:42.445Z,24.36
2023-06-08T18:42:46.879Z,24.16
2023-06-08T18:44:49.604Z,23.98
2023-06-08T18:46:52.515Z,24.01
2023-06-08T18:48:55.423Z,23.87
2023-06-08T18:50:58.503Z,23.77
2023-06-08T18:53:01.341Z,23.80
2023-06-08T18:55:04.407Z,23.83
2023-06-08T18:57:08.353Z,23.75
2023-06-08T18:59:12.507Z,23.66
2023-06-08T19:01:15.610Z,23.68
2023-06-08T19:03:18.959Z,23.69
2023-06-08T19:05:21.857Z,23.55
2023-06-08T19:07:25.042Z,23.53
2023-06-08T19:09:28.983Z,23.68
2023-06-08T19:11:31.986Z,23.52
2023-06-08T19:13:42.157Z,23.42
2023-06-08T19:15:46.944Z,23.33
2023-06-08T19:17:49.981Z,23.30
2023-06-08T19:19:52.943Z,23.34
2023-06-08T19:21:56.032Z,23.34
2023-06-08T19:23:58.865Z,23.11
2023-06-08T19:26:02.008Z,23.07
2023-06-08T19:28:04.940Z,23.12
2023-06-08T19:30:09.683Z,23.12
2023-06-08T19:32:14.092Z,23.13
2023-06-08T19:34:16.789Z,23.03
2023-06-08T19:36:19.861Z,23.08
2023-06-08T19:38:23.091Z,23.12
2023-06-08T19:40:26.017Z,23.15
2023-06-08T19:42:28.897Z,23.17
2023-06-08T19:44:32.240Z,23.14
2023-06-08T19:46:38.573Z,23.11
2023-06-08T19:48:42.973Z,23.09
2023-06-08T19:50:45.733Z,22.96
2023-06-08T19:52:48.924Z,22.96
2023-06-08T19:54:52.074Z,22.97
2023-06-08T19:56:55.074Z,22.96
2023-06-08T19:58:58.008Z,22.98
2023-06-08T20:01:01.342Z,22.98
2023-06-08T20:03:04.851Z,22.98
2023-06-08T20:05:10.424Z,22.96
2023-06-08T20:07:16.328Z,22.98
2023-06-08T20:09:22.624Z,22.99
2023-06-08T20:11:25.966Z,22.99
2023-06-08T20:13:28.848Z,22.98
2023-06-08T20:15:32.420Z,22.99
2023-06-08T20:17:35.553Z,22.97
2023-06-08T20:19:38.476Z,22.95
2023-06-08T20:21:43.239Z,22.96
2023-06-08T20:23:46.133Z,22.93
2023-06-08T20:25:48.972Z,22.91
2023-06-08T20:27:51.966Z,22.94
2023-06-08T20:29:54.846Z,22.93
2023-06-08T20:31:57.857Z,22.92
2023-06-08T20:34:00.843Z,22.93
2023-06-08T20:36:03.709Z,22.92
2023-06-08T20:38:08.169Z,22.89
2023-06-08T20:40:11.853Z,22.81
2023-06-08T20:42:14.756Z,22.78
2023-06-08T20:44:17.641Z,22.76
2023-06-08T20:46:20.482Z,22.74
2023-06-08T20:48:23.402Z,22.72
2023-06-08T20:50:26.437Z,22.70
2023-06-08T20:52:29.275Z,22.72
2023-06-08T20:54:33.545Z,22.65
2023-06-08T20:56:36.531Z,22.66
2023-06-08T20:58:39.381Z,22.87
2023-06-08T21:00:43.004Z,22.67
2023-06-08T21:02:48.956Z,22.49
2023-06-08T21:04:54.627Z,22.42
2023-06-08T21:06:57.545Z,22.36
2023-06-08T21:09:00.988Z,22.38
2023-06-08T21:11:05.256Z,22.43
2023-06-08T21:13:08.117Z,22.39
2023-06-08T21:15:11.511Z,22.27
2023-06-08T21:17:14.468Z,22.29
2023-06-08T21:19:17.274Z,22.26
2023-06-08T21:21:20.112Z,22.25
2023-06-08T21:23:22.970Z,22.26
2023-06-08T21:25:25.849Z,22.12
2023-06-08T21:27:30.897Z,22.05
2023-06-08T21:29:33.883Z,22.05
2023-06-08T21:31:36.815Z,22.01
2023-06-08T21:33:41.549Z,22.05
2023-06-08T21:35:47.558Z,22.07
2023-06-08T21:38:00.919Z,22.04
2023-06-08T21:40:03.921Z,22.03
2023-06-08T21:42:07.726Z,22.04
2023-06-08T21:44:11.905Z,22.06
2023-06-08T21:46:14.826Z,22.06
2023-06-08T21:48:17.706Z,22.05
2023-06-08T21:50:21.467Z,22.16
2023-06-08T21:52:24.624Z,22.10
2023-06-08T21:54:27.516Z,22.00
2023-06-08T21:56:30.390Z,21.92
2023-06-08T21:58:33.252Z,21.92
2023-06-08T22:00:38.218Z,21.83
2023-06-08T22:02:41.732Z,21.82
2023-06-08T22:04:44.732Z,21.78
2023-06-08T22:06:47.582Z,21.73
2023-06-08T22:08:50.458Z,21.71
2023-06-08T22:10:53.290Z,21.69
2023-06-08T22:12:56.342Z,21.68
2023-06-08T22:14:59.863Z,21.65
2023-06-08T22:17:04.708Z,21.63
2023-06-08T22:19:08.212Z,21.63
2023-06-08T22:21:12.701Z,21.62
2023-06-08T22:23:17.060Z,21.59
2023-06-08T22:25:21.915Z,21.54
2023-06-08T22:27:25.244Z,21.51
2023-06-08T22:29:28.125Z,21.48
2023-06-08T22:31:34.607Z,21.49
2023-06-08T22:33:41.094Z,21.42
2023-06-08T22:35:44.296Z,21.40
2023-06-08T22:37:47.116Z,21.37
2023-06-08T22:39:49.931Z,21.37
2023-06-08T22:41:53.179Z,21.32
2023-06-08T22:43:57.810Z,21.28
2023-06-08T22:46:00.664Z,21.25
2023-06-08T22:48:04.902Z,21.24
2023-06-08T22:50:09.492Z,21.13
2023-06-08T22:52:16.436Z,21.11
2023-06-08T22:54:19.257Z,21.10
2023-06-08T22:56:22.091Z,21.10
2023-06-08T22:58:24.948Z,21.09
2023-06-08T23:00:27.884Z,21.09
2023-06-08T23:02:30.813Z,21.07
2023-06-08T23:04:34.627Z,21.06
2023-06-08T23:06:39.092Z,21.02
2023-06-08T23:08:45.805Z,20.98
2023-06-08T23:10:49.865Z,20.98
2023-06-08T23:12:52.995Z,21.02
2023-06-08T23:14:57.789Z,21.03
2023-06-08T23:17:00.644Z,20.93
2023-06-08T23:19:03.560Z,20.93
2023-06-08T23:21:06.977Z,20.95
2023-06-08T23:23:11.147Z,20.97
2023-06-08T23:25:17.925Z,20.97
2023-06-08T23:27:23.087Z,20.98
2023-06-08T23:29:25.888Z,20.92
2023-06-08T23:31:28.803Z,20.90
2023-06-08T23:33:31.706Z,20.86
2023-06-08T23:35:34.538Z,20.82
2023-06-08T23:37:37.402Z,20.73
2023-06-08T23:39:41.635Z,20.72
2023-06-08T23:41:44.641Z,20.68
2023-06-08T23:43:48.329Z,20.63
2023-06-08T23:45:51.266Z,20.59
2023-06-08T23:47:54.157Z,20.57
2023-06-08T23:49:57.277Z,20.62
2023-06-08T23:52:00.142Z,20.69
2023-06-08T23:54:04.660Z,20.66
2023-06-08T23:56:08.662Z,20.57
2023-06-08T23:58:11.535Z,20.52
